Time;durP1;ratioP1;P1;durP2;ratioP2;P2;SDS_P1;SDS_P2;PMS_P1;PMS_P2;Temp;Humidity;BMP_temperature;BMP_pressure;BME280_temperature;BME280_humidity;BME280_pressure;Samples;Min_cycle;Max_cycle;Signal;HPM_P1;HPM_P2
2024/01/14 00:00:00;;;;;;;18.80;8.50;;;;;;;-5.64;100.00;100751.84;104497;1273;60956;-78
2024/01/14 00:02:27;;;;;;;19.50;9.50;;;;;;;-5.63;100.00;100751.17;104542;1271;60355;-77
2024/01/14 00:04:54;;;;;;;15.30;7.80;;;;;;;-5.59;100.00;100746.60;104472;1270;72419;-77
2024/01/14 00:07:21;;;;;;;18.00;8.00;;;;;;;-5.57;100.00;100744.91;104487;1273;63928;-78
2024/01/14 00:09:48;;;;;;;16.20;8.30;;;;;;;-5.56;100.00;100738.95;104488;1270;72463;-78
2024/01/14 00:12:15;;;;;;;14.40;8.10;;;;;;;-5.54;100.00;100740.85;104604;1273;61178;-78
2024/01/14 00:14:42;;;;;;;16.20;8.80;;;;;;;-5.53;100.00;100742.05;104686;1271;60517;-76
2024/01/14 00:17:10;;;;;;;20.40;9.40;;;;;;;-5.52;100.00;100742.58;104558;1269;73825;-78
2024/01/14 00:19:38;;;;;;;16.60;8.70;;;;;;;-5.48;100.00;100737.66;104529;1273;63734;-78
2024/01/14 00:22:05;;;;;;;16.40;7.90;;;;;;;-5.44;100.00;100736.33;104497;1271;71453;-78
2024/01/14 00:24:32;;;;;;;11.10;6.60;;;;;;;-5.41;100.00;100739.77;104602;1273;61062;-76
2024/01/14 00:26:59;;;;;;;12.30;7.40;;;;;;;-5.37;100.00;100744.22;104620;1273;60478;-77
2024/01/14 00:29:26;;;;;;;16.60;7.90;;;;;;;-5.34;100.00;100744.58;104732;1271;73943;-78
2024/01/14 00:31:53;;;;;;;11.80;8.00;;;;;;;-5.31;100.00;100741.52;104616;1271;64042;-78
2024/01/14 00:34:20;;;;;;;15.80;8.10;;;;;;;-5.26;100.00;100740.02;104606;1271;72796;-77
2024/01/14 00:36:47;;;;;;;15.00;7.10;;;;;;;-5.21;100.00;100737.50;104475;1273;61430;-77
2024/01/14 00:39:14;;;;;;;14.60;7.80;;;;;;;-5.16;100.00;100737.36;104559;1273;60389;-76
2024/01/14 00:41:41;;;;;;;14.60;7.30;;;;;;;-5.15;100.00;100734.98;104601;1271;72596;-76
2024/01/14 00:44:08;;;;;;;15.90;6.70;;;;;;;-5.13;100.00;100728.36;104575;1273;63923;-76
2024/01/14 00:46:35;;;;;;;16.40;8.30;;;;;;;-5.12;100.00;100720.00;104767;1271;71235;-76
2024/01/14 00:49:02;;;;;;;18.80;8.40;;;;;;;-5.11;100.00;100719.15;104541;1273;61225;-77
2024/01/14 00:51:29;;;;;;;16.80;8.60;;;;;;;-5.11;100.00;100719.83;104660;1273;60510;-77
2024/01/14 00:53:56;;;;;;;17.60;8.60;;;;;;;-5.10;100.00;100714.04;104474;1271;74010;-77
2024/01/14 00:56:23;;;;;;;19.60;8.50;;;;;;;-5.09;100.00;100705.20;104548;1273;63875;-78
2024/01/14 00:58:51;;;;;;;15.00;7.90;;;;;;;-5.06;100.00;100700.27;104631;1271;72570;-78
2024/01/14 01:01:18;;;;;;;14.10;8.20;;;;;;;-5.02;100.00;100697.90;104544;1273;61244;-78
2024/01/14 01:03:45;;;;;;;15.90;8.60;;;;;;;-4.96;100.00;100691.10;104691;1273;60850;-77
2024/01/14 01:06:12;;;;;;;13.50;8.30;;;;;;;-4.90;100.00;100686.02;105425;1269;73949;-77
2024/01/14 01:08:39;;;;;;;12.50;7.40;;;;;;;-4.87;100.00;100687.41;105141;1273;63942;-78
2024/01/14 01:11:06;;;;;;;17.50;7.00;;;;;;;-4.85;100.00;100691.33;104892;1271;72761;-80
2024/01/14 01:13:33;;;;;;;15.80;8.40;;;;;;;-4.82;100.00;100690.15;104701;1273;61219;-79
2024/01/14 01:16:00;;;;;;;14.80;8.50;;;;;;;-4.80;100.00;100683.85;104625;1271;60565;-78
2024/01/14 01:18:30;;;;;;;18.10;7.80;;;;;;;-4.80;100.00;100681.46;104658;1271;73742;-77
2024/01/14 01:20:57;;;;;;;17.60;7.60;;;;;;;-4.80;100.00;100684.54;104713;1273;64021;-75
2024/01/14 01:23:24;;;;;;;13.50;7.80;;;;;;;-4.78;100.00;100686.06;105880;1271;72825;-77
2024/01/14 01:25:52;;;;;;;24.40;13.20;;;;;;;-4.77;100.00;100681.98;106509;1269;62191;-77
2024/01/14 01:28:19;;;;;;;11.20;6.70;;;;;;;-4.77;100.00;100680.61;106881;1271;60389;-78
2024/01/14 01:30:46;;;;;;;7.40;5.20;;;;;;;-4.78;100.00;100680.26;104917;1268;72653;-78
2024/01/14 01:33:13;;;;;;;8.50;6.00;;;;;;;-4.81;100.00;100679.75;104515;1271;62557;-78
2024/01/14 01:35:40;;;;;;;8.60;5.10;;;;;;;-4.81;100.00;100671.05;104577;1271;71539;-79
2024/01/14 01:38:08;;;;;;;7.70;4.70;;;;;;;-4.79;100.00;100667.14;104687;1273;61362;-78
2024/01/14 01:40:34;;;;;;;7.80;4.30;;;;;;;-4.79;100.00;100669.35;104608;1271;60494;-78
2024/01/14 01:43:02;;;;;;;6.80;4.80;;;;;;;-4.77;100.00;100671.41;104639;1271;73843;-77
2024/01/14 01:45:29;;;;;;;4.80;4.20;;;;;;;-4.74;100.00;100673.30;104519;1273;63705;-79
2024/01/14 01:47:56;;;;;;;9.20;3.90;;;;;;;-4.72;100.00;100668.02;104508;1271;72509;-78
2024/01/14 01:50:25;;;;;;;6.00;4.50;;;;;;;-4.73;100.00;100669.38;104444;1276;60544;-79
2024/01/14 01:52:52;;;;;;;5.90;3.70;;;;;;;-4.74;100.00;100667.16;104411;1270;60450;-77
2024/01/14 01:55:19;;;;;;;5.80;3.50;;;;;;;-4.74;100.00;100669.20;104449;1275;73963;-78
2024/01/14 01:57:46;;;;;;;6.50;4.30;;;;;;;-4.70;100.00;100665.29;104458;1271;62405;-79
2024/01/14 02:00:14;;;;;;;10.20;5.00;;;;;;;-4.66;100.00;100657.80;104493;1271;72526;-77
2024/01/14 02:02:43;;;;;;;5.00;3.60;;;;;;;-4.61;100.00;100656.45;104532;1273;61195;-79
2024/01/14 02:05:11;;;;;;;9.00;5.00;;;;;;;-4.54;100.00;100656.98;104551;1271;60532;-79
2024/01/14 02:07:39;;;;;;;4.50;3.40;;;;;;;-4.51;100.00;100656.98;104564;1273;73895;-79
2024/01/14 02:10:06;;;;;;;6.50;4.20;;;;;;;-4.52;100.00;100655.95;104587;1273;63910;-79
2024/01/14 02:12:33;;;;;;;7.30;4.20;;;;;;;-4.52;100.00;100649.81;104675;1271;70428;-77
2024/01/14 02:15:00;;;;;;;6.90;4.20;;;;;;;-4.49;100.00;100645.55;104548;1273;60568;-78
2024/01/14 02:17:27;;;;;;;5.30;3.90;;;;;;;-4.46;100.00;100640.79;104508;1270;60367;-78
2024/01/14 02:19:54;;;;;;;7.80;4.40;;;;;;;-4.45;100.00;100634.12;104669;1269;72479;-79
2024/01/14 02:22:26;;;;;;;7.20;4.30;;;;;;;-4.42;100.00;100633.80;104596;1273;63794;-77
2024/01/14 02:24:53;;;;;;;10.10;4.60;;;;;;;-4.33;100.00;100629.89;104648;1273;71333;-81
2024/01/14 02:27:21;;;;;;;9.40;5.60;;;;;;;-4.25;100.00;100628.52;104586;1273;61223;-78
2024/01/14 02:29:48;;;;;;;8.30;5.10;;;;;;;-4.18;100.00;100625.29;104549;1272;60456;-80
2024/01/14 02:32:14;;;;;;;8.30;5.00;;;;;;;-4.11;100.00;100623.92;104576;1271;74142;-79
2024/01/14 02:34:41;;;;;;;8.90;4.90;;;;;;;-4.09;100.00;100623.58;104643;1273;63696;-77
2024/01/14 02:37:08;;;;;;;7.80;5.60;;;;;;;-4.06;100.00;100623.91;104585;1271;71285;-78
2024/01/14 02:39:35;;;;;;;9.20;5.80;;;;;;;-4.01;100.00;100620.34;104557;1271;60613;-79
2024/01/14 02:42:02;;;;;;;9.60;6.20;;;;;;;-3.99;100.00;100620.67;104554;1272;60514;-77
2024/01/14 02:44:30;;;;;;;16.00;8.00;;;;;;;-4.03;100.00;100618.10;104548;1271;73944;-78
2024/01/14 02:46:57;;;;;;;10.20;6.40;;;;;;;-4.09;100.00;100616.58;104560;1271;62565;-78
2024/01/14 02:49:23;;;;;;;13.00;6.90;;;;;;;-4.14;100.00;100613.51;104491;1276;73027;-77
2024/01/14 02:51:50;;;;;;;11.10;6.20;;;;;;;-4.18;100.00;100608.22;104645;1270;60526;-77
2024/01/14 02:54:17;;;;;;;13.40;7.80;;;;;;;-4.22;100.00;100606.84;104586;1273;61007;-76
2024/01/14 02:56:45;;;;;;;12.40;5.20;;;;;;;-4.23;100.00;100602.76;104612;1273;73714;-75
2024/01/14 02:59:11;;;;;;;10.90;6.00;;;;;;;-4.25;100.00;100597.29;104681;1273;63791;-77
2024/01/14 03:01:46;;;;;;;13.70;6.20;;;;;;;-4.30;100.00;100588.41;104541;1271;71162;-78
2024/01/14 03:04:13;;;;;;;;;;;;;;;-4.43;100.00;100574.59;104633;1271;60548;-78
2024/01/14 03:06:40;;;;;;;11.30;5.90;;;;;;;-4.57;100.00;100575.44;104592;1270;60555;-76
2024/01/14 03:09:07;;;;;;;14.00;6.10;;;;;;;-4.63;100.00;100569.63;104582;1271;73941;-76
2024/01/14 03:11:34;;;;;;;10.80;6.00;;;;;;;-4.64;100.00;100565.20;104697;1273;62467;-76
2024/01/14 03:14:02;;;;;;;12.60;6.50;;;;;;;-4.63;100.00;100566.56;104626;1271;72795;-79
2024/01/14 03:16:29;;;;;;;12.00;6.20;;;;;;;-4.61;100.00;100561.95;104706;1273;60523;-79
2024/01/14 03:18:56;;;;;;;8.10;5.30;;;;;;;-4.59;100.00;100558.20;104701;1273;60479;-79
2024/01/14 03:21:23;;;;;;;9.10;5.70;;;;;;;-4.57;100.00;100552.58;104601;1271;74020;-77
2024/01/14 03:23:49;;;;;;;10.60;6.10;;;;;;;-4.54;100.00;100547.11;104543;1273;62481;-79
2024/01/14 03:26:17;;;;;;;11.60;6.50;;;;;;;-4.52;100.00;100544.05;104584;1271;72688;-79
2024/01/14 03:28:44;;;;;;;10.50;6.60;;;;;;;-4.54;100.00;100543.38;104621;1281;60389;-78
2024/01/14 03:31:15;;;;;;;12.20;7.30;;;;;;;-4.59;100.00;100537.73;104716;1271;60589;-77
2024/01/14 03:33:42;;;;;;;13.20;5.90;;;;;;;-4.65;100.00;100535.17;104660;1271;73676;-76
2024/01/14 03:36:14;;;;;;;11.20;7.10;;;;;;;-4.70;100.00;100528.02;104667;1271;62517;-78
2024/01/14 03:38:40;;;;;;;14.10;7.30;;;;;;;-4.76;100.00;100524.75;104542;1271;72990;-79
2024/01/14 03:41:08;;;;;;;14.70;7.30;;;;;;;-4.80;100.00;100532.08;104461;1276;60620;-78
2024/01/14 03:43:36;;;;;;;10.20;6.00;;;;;;;-4.83;100.00;100526.96;104655;1269;60572;-78
2024/01/14 03:46:03;;;;;;;14.50;6.10;;;;;;;-4.84;100.00;100525.77;104632;1271;73819;-77
2024/01/14 03:48:30;;;;;;;8.30;6.20;;;;;;;-4.83;100.00;100531.23;104655;1273;62947;-78
2024/01/14 03:50:57;;;;;;;13.00;5.90;;;;;;;-4.83;100.00;100533.27;104554;1271;71018;-79
2024/01/14 03:53:24;;;;;;;11.80;6.70;;;;;;;-4.81;100.00;100537.71;104586;1273;60577;-77
2024/01/14 03:55:52;;;;;;;15.20;6.40;;;;;;;-4.78;100.00;100536.00;104576;1273;60469;-77
2024/01/14 03:58:20;;;;;;;12.40;7.10;;;;;;;-4.75;100.00;100534.48;104821;1273;71975;-76
2024/01/14 04:00:47;;;;;;;14.00;6.80;;;;;;;-4.76;100.00;100541.81;105015;1271;63870;-77
2024/01/14 04:03:15;;;;;;;14.20;7.20;;;;;;;-4.76;100.00;100540.79;106232;1272;71413;-77
2024/01/14 04:05:42;;;;;;;13.20;7.10;;;;;;;-4.76;100.00;100535.67;106065;1272;61916;-77
2024/01/14 04:08:09;;;;;;;11.80;6.40;;;;;;;-4.74;100.00;100538.05;105753;1273;60463;-77
2024/01/14 04:12:39;;;;;;;12.10;7.00;;;;;;;-4.69;100.00;100529.88;103227;1292;600120;-77
2024/01/14 04:15:07;;;;;;;13.70;8.00;;;;;;;-4.66;100.00;100524.42;106206;1266;59896;-76
2024/01/14 04:17:35;;;;;;;13.20;6.50;;;;;;;-4.62;100.00;100526.98;107311;1267;61760;-78
2024/01/14 04:20:03;;;;;;;12.10;6.80;;;;;;;-4.60;100.00;100533.64;106147;1272;71036;-78
2024/01/14 04:22:31;;;;;;;12.00;6.80;;;;;;;-4.57;100.00;100543.35;104824;1266;63652;-79
2024/01/14 04:24:59;;;;;;;10.70;6.60;;;;;;;-4.58;100.00;100537.05;104974;1267;71528;-78
2024/01/14 04:27:27;;;;;;;13.30;7.20;;;;;;;-4.56;100.00;100537.73;104943;1267;201866;-76
2024/01/14 04:29:55;;;;;;;13.40;6.80;;;;;;;-4.53;100.00;100531.26;105841;1253;59611;-79
2024/01/14 04:32:22;;;;;;;15.00;7.80;;;;;;;-4.52;100.00;100529.20;105852;1257;72380;-78
2024/01/14 04:34:50;;;;;;;11.20;6.90;;;;;;;-4.51;100.00;100523.40;105707;1254;63710;-79
2024/01/14 04:37:18;;;;;;;13.40;6.90;;;;;;;-4.48;100.00;100524.94;105750;1254;71435;-80
2024/01/14 04:39:46;;;;;;;10.30;6.80;;;;;;;-4.43;100.00;100518.11;105953;1254;59721;-78
2024/01/14 04:42:13;;;;;;;14.30;7.80;;;;;;;-4.38;100.00;100512.98;105985;1254;59753;-78
2024/01/14 04:44:41;;;;;;;17.10;7.70;;;;;;;-4.34;100.00;100508.39;105791;1253;73029;-79
2024/01/14 04:47:08;;;;;;;9.20;6.30;;;;;;;-4.30;100.00;100505.65;105902;1254;63921;-79
2024/01/14 04:49:36;;;;;;;12.70;7.90;;;;;;;-4.26;100.00;100509.92;106022;1253;71490;-79
2024/01/14 04:52:04;;;;;;;12.30;6.70;;;;;;;-4.24;100.00;100514.35;105741;1258;59627;-76
2024/01/14 04:54:31;;;;;;;12.10;6.80;;;;;;;-4.24;100.00;100513.15;106062;1256;59624;-79
2024/01/14 04:56:58;;;;;;;11.90;7.30;;;;;;;-4.23;100.00;100508.53;105869;1257;73057;-78
2024/01/14 04:59:26;;;;;;;13.20;8.00;;;;;;;-4.23;100.00;100504.44;105799;1252;61865;-79
2024/01/14 05:01:54;;;;;;;15.30;8.50;;;;;;;-4.21;100.00;100500.70;105940;1251;71460;-79
2024/01/14 05:04:21;;;;;;;10.90;6.40;;;;;;;-4.17;100.00;100505.80;105905;1257;60984;-79
2024/01/14 05:06:49;;;;;;;9.30;6.90;;;;;;;-4.13;100.00;100509.21;105809;1257;59956;-79
2024/01/14 05:09:17;;;;;;;8.90;6.10;;;;;;;-4.07;100.00;100513.98;105735;1258;71800;-78
2024/01/14 05:11:45;;;;;;;9.40;7.40;;;;;;;-4.01;100.00;100506.80;105945;1256;61906;-79
2024/01/14 05:14:12;;;;;;;14.30;7.50;;;;;;;-3.95;100.00;100505.24;105818;1257;72684;-79
2024/01/14 05:16:43;;;;;;;12.50;8.10;;;;;;;-3.89;100.00;100504.22;105756;1257;59635;-80
2024/01/14 05:19:10;;;;;;;11.60;7.40;;;;;;;-3.89;100.00;100504.73;105832;1257;60036;-79
2024/01/14 05:21:39;;;;;;;10.80;7.50;;;;;;;-3.89;100.00;100500.95;105868;1257;73048;-79
2024/01/14 05:24:07;;;;;;;14.90;8.80;;;;;;;-3.88;100.00;100498.91;105722;1257;64451;-76
2024/01/14 05:26:39;;;;;;;13.90;7.40;;;;;;;-3.86;100.00;100499.41;105723;1254;71443;-77
2024/01/14 05:29:07;;;;;;;15.90;7.00;;;;;;;-3.86;100.00;100499.92;105795;1254;60927;-79
2024/01/14 05:31:36;;;;;;;11.60;7.50;;;;;;;-3.83;100.00;100493.27;105701;1253;59991;-76
2024/01/14 05:34:04;;;;;;;17.10;6.90;;;;;;;-3.79;100.00;100498.36;105735;1254;73041;-77
2024/01/14 05:36:32;;;;;;;12.70;7.10;;;;;;;-3.73;100.00;100504.67;105853;1254;63706;-78
2024/01/14 05:39:00;;;;;;;13.90;8.70;;;;;;;-3.68;100.00;100509.42;105770;1254;71446;-80
2024/01/14 05:41:27;;;;;;;14.80;9.60;;;;;;;-3.62;100.00;100510.44;105820;1253;59746;-75
2024/01/14 05:43:55;;;;;;;17.20;8.60;;;;;;;-3.59;100.00;100502.06;105799;1254;59984;-77
2024/01/14 05:46:22;;;;;;;12.30;8.10;;;;;;;-3.56;100.00;100503.92;105855;1254;71836;-78
2024/01/14 05:48:50;;;;;;;15.40;9.70;;;;;;;-3.57;100.00;100502.02;105563;1253;62173;-78
2024/01/14 05:51:18;;;;;;;16.90;9.20;;;;;;;-3.56;100.00;100504.61;105592;1258;72715;-77
2024/01/14 05:53:45;;;;;;;16.40;8.30;;;;;;;-3.52;100.00;100498.10;105643;1252;61684;-76
2024/01/14 05:56:13;;;;;;;10.60;7.20;;;;;;;-3.51;100.00;100488.87;105675;1254;60002;-76
2024/01/14 05:58:41;;;;;;;10.50;6.70;;;;;;;-3.48;100.00;100490.39;105542;1254;71833;-77
2024/01/14 06:01:09;;;;;;;14.00;7.20;;;;;;;-3.44;100.00;100492.58;105702;1252;62497;-77
2024/01/14 06:03:37;;;;;;;9.90;6.80;;;;;;;-3.39;100.00;100498.38;105550;1254;71367;-77
2024/01/14 06:06:05;;;;;;;9.40;6.60;;;;;;;-3.32;100.00;100502.10;105788;1254;59737;-76
2024/01/14 06:08:32;;;;;;;8.10;6.10;;;;;;;-3.26;100.00;100495.75;105807;1253;59627;-77
2024/01/14 06:11:03;;;;;;;10.40;6.80;;;;;;;-3.22;100.00;100493.67;105711;1253;72029;-76
2024/01/14 06:13:31;;;;;;;10.10;6.70;;;;;;;-3.21;100.00;100492.13;105868;1257;62379;-79
2024/01/14 06:15:59;;;;;;;19.30;6.90;;;;;;;-3.22;100.00;100496.23;105767;1254;71439;-77
2024/01/14 06:18:28;;;;;;;11.30;7.40;;;;;;;-3.21;100.00;100495.55;105726;1257;62401;-75
2024/01/14 06:20:56;;;;;;;11.60;8.40;;;;;;;-3.21;100.00;100485.80;105683;1253;60999;-76
2024/01/14 06:23:23;;;;;;;10.60;7.70;;;;;;;-3.19;100.00;100482.55;105691;1254;73770;-78
2024/01/14 06:25:51;;;;;;;10.90;8.10;;;;;;;-3.16;100.00;100477.05;105727;1257;63821;-77
2024/01/14 06:28:18;;;;;;;14.90;8.70;;;;;;;-3.14;100.00;100477.55;105789;1254;71608;-79
2024/01/14 06:30:46;;;;;;;15.80;8.20;;;;;;;-3.09;100.00;100476.16;105615;1254;60287;-78
2024/01/14 06:33:13;;;;;;;14.70;7.40;;;;;;;-3.05;100.00;100476.98;105768;1253;59705;-80
2024/01/14 06:35:41;;;;;;;17.70;9.00;;;;;;;-3.02;100.00;100468.93;105961;1256;72948;-78
2024/01/14 06:38:09;;;;;;;14.00;9.80;;;;;;;-3.00;100.00;100461.72;105834;1254;62364;-78
2024/01/14 06:40:37;;;;;;;13.50;8.20;;;;;;;-2.98;100.00;100463.77;105980;1254;71531;-77
2024/01/14 06:43:11;;;;;;;15.00;9.60;;;;;;;-2.96;100.00;100462.73;105885;1254;59650;-79
2024/01/14 06:45:38;;;;;;;13.60;9.40;;;;;;;-2.92;100.00;100465.95;105739;1257;59538;-77
2024/01/14 06:48:06;;;;;;;17.70;9.10;;;;;;;-2.90;100.00;100458.59;105784;1254;72034;-78
2024/01/14 06:50:33;;;;;;;13.50;9.90;;;;;;;-2.89;100.00;100454.48;105834;1254;62353;-79
2024/01/14 06:53:01;;;;;;;13.00;8.50;;;;;;;-2.88;100.00;100445.39;105755;1254;72615;-78
2024/01/14 06:55:28;;;;;;;14.00;7.70;;;;;;;-2.86;100.00;100443.83;105807;1254;59723;-77
2024/01/14 06:57:56;;;;;;;14.20;7.50;;;;;;;-2.83;100.00;100454.42;105751;1254;60962;-79
2024/01/14 07:00:24;;;;;;;14.20;8.90;;;;;;;-2.77;100.00;100462.08;105894;1254;72790;-77
2024/01/14 07:02:51;;;;;;;22.70;10.00;;;;;;;-2.71;100.00;100463.05;105820;1254;62453;-77
2024/01/14 07:05:19;;;;;;;18.00;10.20;;;;;;;-2.64;100.00;100456.66;106086;1257;72680;-78
2024/01/14 07:07:48;;;;;;;18.40;9.70;;;;;;;-2.59;100.00;100454.91;106581;1254;59624;-77
2024/01/14 07:10:18;;;;;;;20.10;10.10;;;;;;;-2.54;100.00;100461.20;106476;1254;60071;-78
2024/01/14 07:12:45;;;;;;;23.10;10.70;;;;;;;-2.51;100.00;100461.00;105780;1257;73049;-78
2024/01/14 07:15:13;;;;;;;21.30;12.90;;;;;;;-2.51;100.00;100458.09;105722;1258;64125;-77
2024/01/14 07:17:41;;;;;;;30.50;13.10;;;;;;;-2.46;100.00;100455.30;105644;1254;71681;-77
2024/01/14 07:20:25;;;;;;;23.80;12.60;;;;;;;-2.37;100.00;100455.56;105768;1253;60095;-80
2024/01/14 07:22:53;;;;;;;22.90;11.00;;;;;;;-2.34;100.00;100450.39;105805;1257;59710;-76
2024/01/14 07:25:21;;;;;;;23.20;9.90;;;;;;;-2.30;100.00;100447.61;105702;1254;73034;-79
2024/01/14 07:27:49;;;;;;;24.10;12.10;;;;;;;-2.27;100.00;100449.83;106614;1253;62426;-77
2024/01/14 07:30:18;;;;;;;24.10;11.80;;;;;;;-2.24;100.00;100447.21;107459;1254;71283;-78
2024/01/14 07:32:46;;;;;;;24.80;10.60;;;;;;;-2.24;100.00;100448.08;105979;1254;59762;-78
2024/01/14 07:35:14;;;;;;;20.70;10.30;;;;;;;-2.22;100.00;100447.19;105850;1253;59654;-80
2024/01/14 07:37:41;;;;;;;20.50;12.10;;;;;;;-2.23;100.00;100447.53;105855;1254;72939;-76
2024/01/14 07:40:09;;;;;;;20.50;12.10;;;;;;;-2.26;100.00;100449.63;105758;1258;62866;-79
2024/01/14 07:42:37;;;;;;;18.50;10.90;;;;;;;-2.31;100.00;100449.34;105835;1254;73388;-78
2024/01/14 07:45:07;;;;;;;16.40;10.20;;;;;;;-2.33;100.00;100451.75;105938;1257;59734;-80
2024/01/14 07:47:34;;;;;;;20.30;11.30;;;;;;;-2.31;100.00;100456.52;105809;1253;59554;-77
2024/01/14 07:50:02;;;;;;;20.80;11.10;;;;;;;-2.26;100.00;100455.12;105751;1259;72138;-78
2024/01/14 07:52:30;;;;;;;24.30;14.60;;;;;;;-2.21;100.00;100446.67;105859;1254;64222;-79
2024/01/14 07:54:57;;;;;;;17.10;11.20;;;;;;;-2.17;100.00;100449.02;105652;1254;71582;-77
2024/01/14 07:57:25;;;;;;;19.90;11.40;;;;;;;-2.14;100.00;100452.58;105704;1256;59756;-79
2024/01/14 07:59:53;;;;;;;23.60;13.30;;;;;;;-2.13;100.00;100454.98;105754;1253;59735;-79
2024/01/14 08:02:20;;;;;;;29.10;14.30;;;;;;;-2.12;100.00;100450.52;105664;1257;71804;-78
2024/01/14 08:04:48;;;;;;;27.00;14.00;;;;;;;-2.13;100.00;100447.60;105699;1254;62284;-78
2024/01/14 08:07:16;;;;;;;24.60;13.00;;;;;;;-2.13;100.00;100446.92;105702;1254;72356;-79
2024/01/14 08:09:44;;;;;;;20.00;11.60;;;;;;;-2.12;100.00;100446.23;105822;1257;59758;-78
2024/01/14 08:12:11;;;;;;;24.30;13.00;;;;;;;-2.10;100.00;100443.64;105944;1254;60032;-77
2024/01/14 08:14:39;;;;;;;25.90;11.60;;;;;;;-2.06;100.00;100436.56;105866;1254;71836;-77
2024/01/14 08:17:07;;;;;;;21.90;12.00;;;;;;;-2.02;100.00;100439.44;105736;1253;62405;-78
2024/01/14 08:19:36;;;;;;;20.50;12.50;;;;;;;-2.00;100.00;100440.27;105782;1257;70444;-80
2024/01/14 08:22:04;;;;;;;28.50;13.60;;;;;;;-1.97;100.00;100439.90;105756;1254;60546;-80
2024/01/14 08:24:33;;;;;;;22.40;11.90;;;;;;;-1.96;100.00;100437.83;105672;1257;60422;-81
2024/01/14 08:27:01;;;;;;;35.50;17.20;;;;;;;-1.93;100.00;100430.60;105722;1257;72235;-82
2024/01/14 08:29:29;;;;;;;29.60;12.60;;;;;;;-1.89;100.00;100426.43;105700;1254;62287;-81
2024/01/14 08:31:56;;;;;;;20.20;11.50;;;;;;;-1.82;100.00;100418.31;105723;1257;73433;-78
2024/01/14 08:34:25;;;;;;;22.70;13.20;;;;;;;-1.76;100.00;100418.56;106257;1254;60424;-79
2024/01/14 08:36:52;;;;;;;23.60;13.50;;;;;;;-1.72;100.00;100410.80;105959;1259;60462;-79
2024/01/14 08:39:20;;;;;;;23.80;13.70;;;;;;;-1.68;100.00;100402.01;105776;1254;72638;-80
2024/01/14 08:41:47;;;;;;;18.50;11.00;;;;;;;-1.64;100.00;100399.75;105799;1257;63632;-79
2024/01/14 08:44:14;;;;;;;20.50;11.40;;;;;;;-1.64;100.00;100399.73;105766;1257;72690;-81
2024/01/14 08:46:44;;;;;;;20.70;12.00;;;;;;;-1.62;100.00;100397.32;105765;1254;60546;-81
2024/01/14 08:49:12;;;;;;;17.50;10.90;;;;;;;-1.58;100.00;100393.32;105804;1255;60546;-82
2024/01/14 08:51:40;;;;;;;15.50;10.30;;;;;;;-1.53;100.00;100392.73;105746;1259;72906;-81
2024/01/14 08:54:07;;;;;;;19.80;11.50;;;;;;;-1.48;100.00;100391.63;106035;1256;62899;-80
2024/01/14 08:56:35;;;;;;;19.40;13.30;;;;;;;-1.44;100.00;100385.58;106059;1256;72681;-81
2024/01/14 08:59:03;;;;;;;23.50;14.60;;;;;;;-1.42;100.00;100387.25;105770;1254;60533;-82
2024/01/14 09:01:30;;;;;;;20.40;14.10;;;;;;;-1.41;100.00;100385.17;105760;1252;60891;-80
2024/01/14 09:03:58;;;;;;;24.90;14.00;;;;;;;-1.42;100.00;100380.41;105848;1254;72547;-80
2024/01/14 09:06:26;;;;;;;22.60;12.30;;;;;;;-1.44;100.00;100372.37;105735;1253;64478;-79
2024/01/14 09:08:54;;;;;;;29.10;15.10;;;;;;;-1.45;100.00;100371.86;105833;1254;71162;-80
2024/01/14 09:11:21;;;;;;;24.60;13.90;;;;;;;-1.42;100.00;100369.26;105699;1259;61336;-81
2024/01/14 09:13:48;;;;;;;21.30;13.10;;;;;;;-1.38;100.00;100372.97;105711;1254;61321;-81
2024/01/14 09:16:16;;;;;;;19.90;12.70;;;;;;;-1.33;100.00;100372.90;105721;1255;73815;-81
2024/01/14 09:18:44;;;;;;;21.10;12.40;;;;;;;-1.30;100.00;100371.46;105775;1256;65756;-80
2024/01/14 09:21:11;;;;;;;24.80;13.00;;;;;;;-1.26;100.00;100368.15;105737;1254;72728;-82
2024/01/14 09:23:39;;;;;;;26.20;15.80;;;;;;;-1.24;100.00;100365.21;105779;1254;60473;-81
2024/01/14 09:26:07;;;;;;;22.10;13.70;;;;;;;-1.21;100.00;100362.59;105840;1254;60444;-79
2024/01/14 09:28:35;;;;;;;23.70;14.60;;;;;;;-1.22;100.00;100360.55;105704;1258;73814;-80
2024/01/14 09:31:03;;;;;;;22.00;13.60;;;;;;;-1.25;100.00;100354.23;105800;1254;65661;-79
2024/01/14 09:33:31;;;;;;;22.60;13.60;;;;;;;-1.27;100.00;100349.48;105771;1254;73091;-78
2024/01/14 09:36:06;;;;;;;26.60;15.80;;;;;;;-1.27;100.00;100345.20;105840;1254;61040;-80
2024/01/14 09:38:35;;;;;;;20.00;12.90;;;;;;;-1.23;100.00;100342.90;105763;1253;60460;-77
2024/01/14 09:41:13;;;;;;;32.90;17.00;;;;;;;-1.16;100.00;100338.84;105927;1254;73482;-79
2024/01/14 09:43:41;;;;;;;23.90;14.20;;;;;;;-1.09;100.00;100336.49;105761;1259;62439;-80
2024/01/14 09:46:08;;;;;;;19.70;12.10;;;;;;;-1.04;100.00;100330.39;105680;1259;72635;-80
2024/01/14 09:48:36;;;;;;;21.60;14.80;;;;;;;-1.01;100.00;100328.13;109296;1253;61101;-80
2024/01/14 09:51:04;;;;;;;26.70;15.10;;;;;;;-0.98;100.00;100324.64;109600;1252;62400;-78
2024/01/14 09:53:31;;;;;;;23.80;16.10;;;;;;;-0.96;100.00;100326.99;109446;1253;72699;-80
2024/01/14 09:56:00;;;;;;;24.20;15.30;;;;;;;-0.94;100.00;100326.28;109592;1253;65693;-80
2024/01/14 09:58:28;;;;;;;28.90;17.30;;;;;;;-0.97;100.00;100323.92;109453;1254;73149;-79
2024/01/14 10:00:56;;;;;;;21.90;14.50;;;;;;;-1.00;100.00;100326.39;109664;1252;60844;-79
2024/01/14 10:03:23;;;;;;;16.60;12.20;;;;;;;-1.06;100.00;100324.44;109563;1252;58148;-79
2024/01/14 10:05:51;;;;;;;19.30;12.60;;;;;;;-1.11;100.00;100323.49;109307;1252;72911;-78
2024/01/14 10:08:19;;;;;;;23.60;14.40;;;;;;;-1.14;100.00;100320.46;109419;1253;64718;-78
2024/01/14 10:10:52;;;;;;;21.60;12.90;;;;;;;-1.12;100.00;100317.67;109547;1252;71465;-79
2024/01/14 10:13:25;;;;;;;22.50;13.90;;;;;;;-1.08;100.00;100313.83;109552;1254;60130;-78
2024/01/14 10:15:52;;;;;;;27.80;15.20;;;;;;;-1.03;100.00;100312.37;109683;1252;58827;-79
2024/01/14 10:18:26;;;;;;;24.30;14.70;;;;;;;-0.99;100.00;100312.63;109715;1253;74471;-81
2024/01/14 10:20:55;;;;;;;19.60;14.10;;;;;;;-0.95;100.00;100311.71;109565;1252;63944;-79
2024/01/14 10:23:23;;;;;;;24.80;14.00;;;;;;;-0.88;100.00;100307.48;109600;1254;70838;-80
2024/01/14 10:25:52;;;;;;;17.70;9.80;;;;;;;-0.83;100.00;100304.30;109419;1252;58293;-78
2024/01/14 10:28:21;;;;;;;20.90;13.30;;;;;;;-0.79;100.00;100305.60;109686;1252;60493;-79
2024/01/14 10:30:49;;;;;;;15.10;10.60;;;;;;;-0.76;100.00;100299.70;109436;1254;73993;-79
2024/01/14 10:33:17;;;;;;;16.30;11.10;;;;;;;-0.75;100.00;100298.15;109558;1254;65474;-78
2024/01/14 10:35:50;;;;;;;20.30;12.10;;;;;;;-0.71;100.00;100290.00;109584;1253;71884;-80
2024/01/14 10:38:19;;;;;;;18.20;11.90;;;;;;;-0.68;100.00;100284.10;109552;1252;61267;-79
2024/01/14 10:40:47;;;;;;;27.40;16.60;;;;;;;-0.64;100.00;100284.53;109629;1253;58130;-78
2024/01/14 10:43:14;;;;;;;17.20;10.70;;;;;;;-0.60;100.00;100278.46;109465;1252;74458;-78
2024/01/14 10:45:42;;;;;;;21.60;11.10;;;;;;;-0.57;100.00;100273.42;109581;1252;65905;-78
2024/01/14 10:48:10;;;;;;;20.30;11.30;;;;;;;-0.54;100.00;100272.35;109571;1254;72447;-78
2024/01/14 10:50:40;;;;;;;19.20;10.40;;;;;;;-0.47;100.00;100265.33;109544;1252;60709;-77
2024/01/14 10:53:18;;;;;;;14.10;9.40;;;;;;;-0.37;100.00;100265.80;109315;1252;58472;-79
2024/01/14 10:55:49;;;;;;;15.50;10.10;;;;;;;-0.28;100.00;100267.86;109413;1253;74098;-79
2024/01/14 10:58:24;;;;;;;21.30;11.90;;;;;;;-0.22;100.00;100259.98;109586;1253;63943;-80
2024/01/14 11:00:52;;;;;;;15.00;11.60;;;;;;;-0.16;100.00;100258.66;109405;1254;72594;-76
2024/01/14 11:03:19;;;;;;;15.40;10.30;;;;;;;-0.13;100.00;100260.33;109644;1253;58541;-76